sensor_id;sensor_type;location;lat;lon;timestamp;pressure;altitude;pressure_sealevel;temperature;humidity
8318;BME280;4196;48.926;8.964;2023-02-21T00:02:41;99571.81;;;0.46;100.00
8318;BME280;4196;48.926;8.964;2023-02-21T00:05:46;99534.47;;;0.09;100.00
8318;BME280;4196;48.926;8.964;2023-02-21T00:08:52;99542.97;;;0.28;100.00
8318;BME280;4196;48.926;8.964;2023-02-21T00:11:56;99552.09;;;0.22;100.00
8318;BME280;4196;48.926;8.964;2023-02-21T00:15:02;99544.16;;;0.16;100.00
8318;BME280;4196;48.926;8.964;2023-02-21T00:18:07;99517.03;;;-0.01;100.00
8318;BME280;4196;48.926;8.964;2023-02-21T00:21:12;99577.16;;;0.33;100.00
8318;BME280;4196;48.926;8.964;2023-02-21T00:24:18;99573.59;;;0.29;100.00
8318;BME280;4196;48.926;8.964;2023-02-21T00:27:24;99502.22;;;-0.28;100.00
8318;BME280;4196;48.926;8.964;2023-02-21T00:30:29;99580.88;;;0.21;100.00
8318;BME280;4196;48.926;8.964;2023-02-21T00:33:36;99557.69;;;0.15;100.00
8318;BME280;4196;48.926;8.964;2023-02-21T00:36:41;99556.66;;;0.30;100.00
8318;BME280;4196;48.926;8.964;2023-02-21T00:39:45;99567.78;;;0.14;100.00
8318;BME280;4196;48.926;8.964;2023-02-21T00:42:51;99538.72;;;-0.09;100.00
8318;BME280;4196;48.926;8.964;2023-02-21T00:45:56;99548.44;;;0.17;100.00
8318;BME280;4196;48.926;8.964;2023-02-21T00:49:03;99529.50;;;-0.07;100.00
8318;BME280;4196;48.926;8.964;2023-02-21T00:52:09;99490.72;;;-0.19;100.00
8318;BME280;4196;48.926;8.964;2023-02-21T00:55:14;99521.75;;;-0.09;100.00
8318;BME280;4196;48.926;8.964;2023-02-21T00:58:22;99564.41;;;0.33;100.00
8318;BME280;4196;48.926;8.964;2023-02-21T01:01:27;99517.88;;;0.17;100.00
8318;BME280;4196;48.926;8.964;2023-02-21T01:04:32;99499.00;;;-0.06;100.00
8318;BME280;4196;48.926;8.964;2023-02-21T01:07:37;99550.91;;;0.16;100.00
8318;BME280;4196;48.926;8.964;2023-02-21T01:10:42;99552.66;;;-0.01;100.00
8318;BME280;4196;48.926;8.964;2023-02-21T01:13:47;99544.38;;;0.03;100.00
8318;BME280;4196;48.926;8.964;2023-02-21T01:16:52;99551.78;;;0.16;100.00
8318;BME280;4196;48.926;8.964;2023-02-21T01:20:00;99506.19;;;0.03;100.00
8318;BME280;4196;48.926;8.964;2023-02-21T01:23:04;99520.69;;;0.04;100.00
8318;BME280;4196;48.926;8.964;2023-02-21T01:26:09;99530.56;;;-0.02;100.00
8318;BME280;4196;48.926;8.964;2023-02-21T01:29:16;99520.69;;;-0.32;100.00
8318;BME280;4196;48.926;8.964;2023-02-21T01:32:21;99504.09;;;-0.41;100.00
8318;BME280;4196;48.926;8.964;2023-02-21T01:35:27;99543.94;;;-0.06;100.00
8318;BME280;4196;48.926;8.964;2023-02-21T01:38:33;99514.63;;;-0.34;100.00
8318;BME280;4196;48.926;8.964;2023-02-21T01:41:39;99539.41;;;-0.30;100.00
8318;BME280;4196;48.926;8.964;2023-02-21T01:44:46;99518.19;;;-0.48;100.00
8318;BME280;4196;48.926;8.964;2023-02-21T01:47:51;99496.44;;;-0.59;100.00
8318;BME280;4196;48.926;8.964;2023-02-21T01:50:56;99513.97;;;-0.30;100.00
8318;BME280;4196;48.926;8.964;2023-02-21T01:54:03;99539.00;;;-0.03;100.00
8318;BME280;4196;48.926;8.964;2023-02-21T01:57:09;99510.50;;;-0.32;100.00
8318;BME280;4196;48.926;8.964;2023-02-21T02:00:15;99516.47;;;-0.31;100.00
8318;BME280;4196;48.926;8.964;2023-02-21T02:03:21;99489.72;;;-0.59;100.00
8318;BME280;4196;48.926;8.964;2023-02-21T02:06:26;99526.06;;;-0.43;100.00
8318;BME280;4196;48.926;8.964;2023-02-21T02:09:32;99483.59;;;-0.62;100.00
8318;BME280;4196;48.926;8.964;2023-02-21T02:31:32;99529.66;;;-0.56;100.00
8318;BME280;4196;48.926;8.964;2023-02-21T02:37:47;99514.63;;;-0.69;100.00
8318;BME280;4196;48.926;8.964;2023-02-21T02:40:49;99526.25;;;-0.57;100.00
8318;BME280;4196;48.926;8.964;2023-02-21T02:44:03;99469.50;;;-0.56;100.00
8318;BME280;4196;48.926;8.964;2023-02-21T02:46:51;99513.69;;;-0.36;100.00
8318;BME280;4196;48.926;8.964;2023-02-21T02:49:42;99476.31;;;-0.73;100.00
8318;BME280;4196;48.926;8.964;2023-02-21T02:52:30;99486.28;;;-0.59;100.00
8318;BME280;4196;48.926;8.964;2023-02-21T02:55:42;99520.97;;;-0.26;100.00
8318;BME280;4196;48.926;8.964;2023-02-21T02:58:41;99516.16;;;-0.55;100.00
8318;BME280;4196;48.926;8.964;2023-02-21T03:08:06;99521.59;;;-0.30;100.00
8318;BME280;4196;48.926;8.964;2023-02-21T03:11:26;99523.88;;;-0.54;100.00
8318;BME280;4196;48.926;8.964;2023-02-21T03:14:15;99511.75;;;-0.76;100.00
8318;BME280;4196;48.926;8.964;2023-02-21T03:17:08;99527.63;;;-0.63;100.00
8318;BME280;4196;48.926;8.964;2023-02-21T03:19:58;99493.28;;;-0.89;100.00
8318;BME280;4196;48.926;8.964;2023-02-21T03:22:46;99494.47;;;-0.83;100.00
8318;BME280;4196;48.926;8.964;2023-02-21T03:25:35;99521.38;;;-0.70;100.00
8318;BME280;4196;48.926;8.964;2023-02-21T03:28:24;99526.22;;;-0.75;100.00
8318;BME280;4196;48.926;8.964;2023-02-21T03:31:13;99518.25;;;-0.64;100.00
8318;BME280;4196;48.926;8.964;2023-02-21T03:34:03;99489.81;;;-0.91;100.00
8318;BME280;4196;48.926;8.964;2023-02-21T03:36:49;99501.88;;;-0.87;100.00
8318;BME280;4196;48.926;8.964;2023-02-21T03:39:37;99469.59;;;-1.06;100.00
8318;BME280;4196;48.926;8.964;2023-02-21T03:42:23;99499.66;;;-0.98;100.00
8318;BME280;4196;48.926;8.964;2023-02-21T03:45:10;99436.28;;;-1.29;100.00
8318;BME280;4196;48.926;8.964;2023-02-21T03:47:57;99516.25;;;-0.88;100.00
8318;BME280;4196;48.926;8.964;2023-02-21T03:50:43;99507.34;;;-0.96;100.00
8318;BME280;4196;48.926;8.964;2023-02-21T03:53:31;99500.69;;;-0.94;100.00
8318;BME280;4196;48.926;8.964;2023-02-21T03:56:19;99504.97;;;-0.93;100.00
8318;BME280;4196;48.926;8.964;2023-02-21T03:59:30;99513.06;;;-0.84;100.00
8318;BME280;4196;48.926;8.964;2023-02-21T04:02:17;99529.25;;;-0.82;100.00
8318;BME280;4196;48.926;8.964;2023-02-21T04:05:05;99501.34;;;-0.98;100.00
8318;BME280;4196;48.926;8.964;2023-02-21T04:07:51;99521.34;;;-0.88;100.00
8318;BME280;4196;48.926;8.964;2023-02-21T04:10:38;99512.22;;;-1.01;100.00
8318;BME280;4196;48.926;8.964;2023-02-21T04:13:38;99474.03;;;-1.18;100.00
8318;BME280;4196;48.926;8.964;2023-02-21T04:16:25;99485.22;;;-1.15;100.00
8318;BME280;4196;48.926;8.964;2023-02-21T04:19:13;99461.34;;;-1.18;100.00
8318;BME280;4196;48.926;8.964;2023-02-21T04:22:00;99511.28;;;-0.85;100.00
8318;BME280;4196;48.926;8.964;2023-02-21T04:24:47;99489.75;;;-1.09;100.00
8318;BME280;4196;48.926;8.964;2023-02-21T04:27:35;99496.41;;;-1.11;100.00
8318;BME280;4196;48.926;8.964;2023-02-21T04:30:23;99503.09;;;-1.13;100.00
8318;BME280;4196;48.926;8.964;2023-02-21T04:33:10;99478.50;;;-1.31;100.00
8318;BME280;4196;48.926;8.964;2023-02-21T04:35:56;99523.63;;;-0.92;100.00
8318;BME280;4196;48.926;8.964;2023-02-21T04:38:51;99523.78;;;-0.89;100.00
8318;BME280;4196;48.926;8.964;2023-02-21T04:41:38;99503.00;;;-0.99;100.00
8318;BME280;4196;48.926;8.964;2023-02-21T04:44:25;99487.69;;;-1.16;100.00
8318;BME280;4196;48.926;8.964;2023-02-21T04:47:11;99524.53;;;-0.92;100.00
8318;BME280;4196;48.926;8.964;2023-02-21T04:49:57;99496.13;;;-1.17;100.00
8318;BME280;4196;48.926;8.964;2023-02-21T04:52:46;99478.50;;;-1.31;100.00
8318;BME280;4196;48.926;8.964;2023-02-21T04:55:32;99512.78;;;-1.06;100.00
8318;BME280;4196;48.926;8.964;2023-02-21T04:58:19;99473.97;;;-1.36;100.00
8318;BME280;4196;48.926;8.964;2023-02-21T05:01:06;99509.94;;;-1.12;100.00
8318;BME280;4196;48.926;8.964;2023-02-21T05:03:53;99477.63;;;-1.31;100.00
8318;BME280;4196;48.926;8.964;2023-02-21T05:06:39;99457.25;;;-1.49;100.00
8318;BME280;4196;48.926;8.964;2023-02-21T05:09:26;99478.19;;;-1.37;100.00
8318;BME280;4196;48.926;8.964;2023-02-21T05:12:12;99517.34;;;-0.83;100.00
8318;BME280;4196;48.926;8.964;2023-02-21T05:14:59;99458.50;;;-1.25;100.00
8318;BME280;4196;48.926;8.964;2023-02-21T05:17:45;99454.28;;;-1.24;100.00
8318;BME280;4196;48.926;8.964;2023-02-21T05:20:32;99498.47;;;-1.04;100.00
8318;BME280;4196;48.926;8.964;2023-02-21T05:23:18;99480.56;;;-1.24;100.00
8318;BME280;4196;48.926;8.964;2023-02-21T05:26:19;99520.53;;;-0.87;100.00
8318;BME280;4196;48.926;8.964;2023-02-21T05:29:05;99483.53;;;-0.98;100.00
8318;BME280;4196;48.926;8.964;2023-02-21T05:31:51;99512.56;;;-0.77;100.00
8318;BME280;4196;48.926;8.964;2023-02-21T05:34:38;99495.59;;;-0.94;100.00
8318;BME280;4196;48.926;8.964;2023-02-21T05:37:26;99451.84;;;-1.39;100.00
8318;BME280;4196;48.926;8.964;2023-02-21T05:40:16;99475.31;;;-1.27;100.00
8318;BME280;4196;48.926;8.964;2023-02-21T05:43:03;99505.44;;;-1.00;100.00
8318;BME280;4196;48.926;8.964;2023-02-21T05:45:49;99471.00;;;-1.11;100.00
8318;BME280;4196;48.926;8.964;2023-02-21T05:48:35;99491.00;;;-1.01;100.00
8318;BME280;4196;48.926;8.964;2023-02-21T05:51:22;99471.16;;;-1.08;100.00
8318;BME280;4196;48.926;8.964;2023-02-21T05:54:14;99451.09;;;-1.20;100.00
8318;BME280;4196;48.926;8.964;2023-02-21T05:57:00;99500.16;;;-1.05;100.00
8318;BME280;4196;48.926;8.964;2023-02-21T05:59:47;99489.06;;;-1.07;100.00
8318;BME280;4196;48.926;8.964;2023-02-21T06:02:33;99469.44;;;-1.09;100.00
8318;BME280;4196;48.926;8.964;2023-02-21T06:05:20;99457.66;;;-1.07;100.00
8318;BME280;4196;48.926;8.964;2023-02-21T06:08:07;99480.28;;;-0.95;100.00
8318;BME280;4196;48.926;8.964;2023-02-21T06:10:57;99480.84;;;-1.01;100.00
8318;BME280;4196;48.926;8.964;2023-02-21T06:13:43;99449.13;;;-1.26;100.00
8318;BME280;4196;48.926;8.964;2023-02-21T06:16:36;99489.22;;;-0.86;100.00
8318;BME280;4196;48.926;8.964;2023-02-21T06:19:23;99513.97;;;-0.65;100.00
8318;BME280;4196;48.926;8.964;2023-02-21T06:22:09;99496.41;;;-0.43;100.00
8318;BME280;4196;48.926;8.964;2023-02-21T06:24:56;99505.69;;;-0.61;100.00
8318;BME280;4196;48.926;8.964;2023-02-21T06:27:42;99472.69;;;-0.60;100.00
8318;BME280;4196;48.926;8.964;2023-02-21T06:30:29;99509.13;;;-0.43;100.00
8318;BME280;4196;48.926;8.964;2023-02-21T06:33:15;99503.50;;;-0.71;100.00
8318;BME280;4196;48.926;8.964;2023-02-21T06:36:06;99525.28;;;-0.77;100.00
8318;BME280;4196;48.926;8.964;2023-02-21T06:38:55;99522.03;;;-0.56;100.00
8318;BME280;4196;48.926;8.964;2023-02-21T06:41:41;99491.50;;;-0.56;100.00
8318;BME280;4196;48.926;8.964;2023-02-21T06:44:28;99506.19;;;-0.68;100.00
8318;BME280;4196;48.926;8.964;2023-02-21T06:47:15;99475.22;;;-0.78;100.00
8318;BME280;4196;48.926;8.964;2023-02-21T06:50:02;99479.31;;;-0.98;100.00
8318;BME280;4196;48.926;8.964;2023-02-21T06:52:49;99494.41;;;-0.84;100.00
8318;BME280;4196;48.926;8.964;2023-02-21T06:55:35;99490.03;;;-0.87;100.00
8318;BME280;4196;48.926;8.964;2023-02-21T06:58:21;99519.56;;;-0.73;100.00
8318;BME280;4196;48.926;8.964;2023-02-21T07:01:08;99523.94;;;-0.70;100.00
8318;BME280;4196;48.926;8.964;2023-02-21T07:03:56;99515.56;;;-0.67;100.00
8318;BME280;4196;48.926;8.964;2023-02-21T07:06:42;99482.81;;;-0.61;100.00
8318;BME280;4196;48.926;8.964;2023-02-21T07:09:29;99517.84;;;-0.38;100.00
8318;BME280;4196;48.926;8.964;2023-02-21T07:12:15;99507.66;;;-0.38;100.00
8318;BME280;4196;48.926;8.964;2023-02-21T07:15:02;99490.44;;;-0.43;100.00
8318;BME280;4196;48.926;8.964;2023-02-21T07:17:48;99489.28;;;-0.32;100.00
8318;BME280;4196;48.926;8.964;2023-02-21T07:20:35;99502.94;;;-0.12;100.00
8318;BME280;4196;48.926;8.964;2023-02-21T07:23:21;99511.22;;;0.02;100.00
8318;BME280;4196;48.926;8.964;2023-02-21T07:26:08;99490.13;;;0.04;100.00
8318;BME280;4196;48.926;8.964;2023-02-21T07:28:54;99503.81;;;0.26;100.00
8318;BME280;4196;48.926;8.964;2023-02-21T07:31:41;99508.72;;;0.40;100.00
8318;BME280;4196;48.926;8.964;2023-02-21T07:34:27;99507.75;;;0.56;100.00
8318;BME280;4196;48.926;8.964;2023-02-21T07:37:13;99494.63;;;0.66;100.00
8318;BME280;4196;48.926;8.964;2023-02-21T07:40:00;99510.94;;;0.91;100.00
8318;BME280;4196;48.926;8.964;2023-02-21T07:42:46;99477.47;;;0.83;100.00
8318;BME280;4196;48.926;8.964;2023-02-21T07:45:33;99511.72;;;1.09;100.00
8318;BME280;4196;48.926;8.964;2023-02-21T07:48:19;99524.94;;;1.20;100.00
8318;BME280;4196;48.926;8.964;2023-02-21T07:51:07;99496.59;;;1.33;100.00
8318;BME280;4196;48.926;8.964;2023-02-21T07:53:53;99495.13;;;1.40;100.00
8318;BME280;4196;48.926;8.964;2023-02-21T07:56:44;99509.63;;;1.62;100.00
8318;BME280;4196;48.926;8.964;2023-02-21T07:59:31;99521.38;;;1.79;100.00
8318;BME280;4196;48.926;8.964;2023-02-21T08:02:17;99510.09;;;1.95;100.00
8318;BME280;4196;48.926;8.964;2023-02-21T08:05:05;99507.16;;;2.07;100.00
8318;BME280;4196;48.926;8.964;2023-02-21T08:07:51;99504.31;;;2.22;100.00
8318;BME280;4196;48.926;8.964;2023-02-21T08:10:38;99504.91;;;2.38;100.00
8318;BME280;4196;48.926;8.964;2023-02-21T08:13:24;99486.53;;;2.47;100.00
8318;BME280;4196;48.926;8.964;2023-02-21T08:16:10;99516.31;;;2.71;100.00
8318;BME280;4196;48.926;8.964;2023-02-21T08:18:57;99486.91;;;2.82;100.00
8318;BME280;4196;48.926;8.964;2023-02-21T08:21:44;99517.22;;;2.95;100.00
8318;BME280;4196;48.926;8.964;2023-02-21T08:24:31;99516.75;;;3.07;100.00
8318;BME280;4196;48.926;8.964;2023-02-21T08:27:18;99488.25;;;2.96;100.00
8318;BME280;4196;48.926;8.964;2023-02-21T08:30:05;99480.84;;;3.04;100.00
8318;BME280;4196;48.926;8.964;2023-02-21T08:32:51;99516.09;;;3.38;100.00
8318;BME280;4196;48.926;8.964;2023-02-21T08:35:37;99500.22;;;3.48;100.00
8318;BME280;4196;48.926;8.964;2023-02-21T08:38:24;99487.75;;;3.57;100.00
8318;BME280;4196;48.926;8.964;2023-02-21T08:41:10;99518.50;;;3.86;100.00
8318;BME280;4196;48.926;8.964;2023-02-21T08:43:57;99481.59;;;3.79;100.00
8318;BME280;4196;48.926;8.964;2023-02-21T08:46:43;99466.81;;;3.99;100.00
8318;BME280;4196;48.926;8.964;2023-02-21T08:49:30;99458.53;;;4.08;100.00
8318;BME280;4196;48.926;8.964;2023-02-21T08:52:18;99512.56;;;4.44;100.00
8318;BME280;4196;48.926;8.964;2023-02-21T08:55:05;99499.84;;;4.47;100.00
8318;BME280;4196;48.926;8.964;2023-02-21T08:57:52;99492.56;;;4.61;100.00
8318;BME280;4196;48.926;8.964;2023-02-21T09:00:39;99504.84;;;4.73;100.00
8318;BME280;4196;48.926;8.964;2023-02-21T09:03:25;99504.59;;;4.95;100.00
8318;BME280;4196;48.926;8.964;2023-02-21T09:06:12;99497.97;;;5.03;100.00
8318;BME280;4196;48.926;8.964;2023-02-21T09:08:59;99512.59;;;5.39;100.00
8318;BME280;4196;48.926;8.964;2023-02-21T09:11:45;99495.50;;;5.41;100.00
8318;BME280;4196;48.926;8.964;2023-02-21T09:14:34;99503.13;;;5.71;100.00
8318;BME280;4196;48.926;8.964;2023-02-21T09:17:21;99510.34;;;5.88;100.00
8318;BME280;4196;48.926;8.964;2023-02-21T09:20:10;99515.00;;;6.02;100.00
8318;BME280;4196;48.926;8.964;2023-02-21T09:22:56;99507.94;;;6.32;100.00
8318;BME280;4196;48.926;8.964;2023-02-21T09:25:43;99507.00;;;6.69;100.00
8318;BME280;4196;48.926;8.964;2023-02-21T09:28:30;99465.69;;;6.63;100.00
8318;BME280;4196;48.926;8.964;2023-02-21T09:31:18;99462.41;;;6.70;100.00
8318;BME280;4196;48.926;8.964;2023-02-21T09:34:04;99476.66;;;6.98;100.00
8318;BME280;4196;48.926;8.964;2023-02-21T09:36:51;99500.31;;;7.22;100.00
8318;BME280;4196;48.926;8.964;2023-02-21T09:39:37;99465.97;;;7.25;100.00
8318;BME280;4196;48.926;8.964;2023-02-21T09:42:28;99479.16;;;7.40;100.00
8318;BME280;4196;48.926;8.964;2023-02-21T09:45:16;99500.19;;;7.68;100.00
8318;BME280;4196;48.926;8.964;2023-02-21T09:48:14;99494.41;;;7.83;100.00
8318;BME280;4196;48.926;8.964;2023-02-21T09:51:04;99486.13;;;8.04;100.00
8318;BME280;4196;48.926;8.964;2023-02-21T09:53:55;99458.72;;;8.10;100.00
8318;BME280;4196;48.926;8.964;2023-02-21T09:56:43;99467.13;;;8.61;98.58
8318;BME280;4196;48.926;8.964;2023-02-21T09:59:30;99460.19;;;8.57;98.98
8318;BME280;4196;48.926;8.964;2023-02-21T10:02:39;99481.19;;;8.84;94.05
8318;BME280;4196;48.926;8.964;2023-02-21T10:06:09;99480.44;;;8.98;91.70
8318;BME280;4196;48.926;8.964;2023-02-21T10:09:01;99476.28;;;9.12;88.30
8318;BME280;4196;48.926;8.964;2023-02-21T10:17:48;99468.38;;;9.96;78.53
8318;BME280;4196;48.926;8.964;2023-02-21T10:21:02;99468.59;;;10.32;75.45
8318;BME280;4196;48.926;8.964;2023-02-21T10:23:55;99443.47;;;10.13;76.20
8318;BME280;4196;48.926;8.964;2023-02-21T10:26:51;99459.97;;;10.27;76.02
8318;BME280;4196;48.926;8.964;2023-02-21T10:29:47;99465.25;;;10.53;75.36
8318;BME280;4196;48.926;8.964;2023-02-21T10:32:36;99465.31;;;10.72;73.63
8318;BME280;4196;48.926;8.964;2023-02-21T10:35:23;99461.91;;;10.83;73.44
8318;BME280;4196;48.926;8.964;2023-02-21T10:38:12;99464.53;;;11.05;71.31
8318;BME280;4196;48.926;8.964;2023-02-21T10:41:03;99467.13;;;11.08;72.06
8318;BME280;4196;48.926;8.964;2023-02-21T10:43:54;99461.94;;;11.11;71.61
8318;BME280;4196;48.926;8.964;2023-02-21T10:46:53;99469.75;;;11.17;72.02
8318;BME280;4196;48.926;8.964;2023-02-21T10:49:46;99455.94;;;11.27;71.90
8318;BME280;4196;48.926;8.964;2023-02-21T10:52:47;99457.66;;;11.33;70.86
8318;BME280;4196;48.926;8.964;2023-02-21T10:55:33;99456.78;;;11.32;71.38
8318;BME280;4196;48.926;8.964;2023-02-21T10:58:24;99443.84;;;11.46;70.12
8318;BME280;4196;48.926;8.964;2023-02-21T11:01:16;99448.16;;;11.44;70.03
8318;BME280;4196;48.926;8.964;2023-02-21T11:04:24;99448.16;;;11.46;69.29
8318;BME280;4196;48.926;8.964;2023-02-21T11:07:12;99447.28;;;11.57;68.14
8318;BME280;4196;48.926;8.964;2023-02-21T11:10:01;99420.50;;;11.60;66.72
8318;BME280;4196;48.926;8.964;2023-02-21T11:13:12;99436.91;;;11.73;66.61
8318;BME280;4196;48.926;8.964;2023-02-21T11:16:11;99430.84;;;11.71;67.32
8318;BME280;4196;48.926;8.964;2023-02-21T11:19:05;99429.97;;;11.79;67.57
8318;BME280;4196;48.926;8.964;2023-02-21T11:21:55;99418.72;;;11.96;65.92
8318;BME280;4196;48.926;8.964;2023-02-21T11:24:59;99410.06;;;12.03;65.82
8318;BME280;4196;48.926;8.964;2023-02-21T11:28:04;99407.44;;;12.12;64.35
8318;BME280;4196;48.926;8.964;2023-02-21T11:34:07;99390.84;;;12.41;65.21
8318;BME280;4196;48.926;8.964;2023-02-21T11:37:01;99385.63;;;12.53;64.37
8318;BME280;4196;48.926;8.964;2023-02-21T11:39:51;99378.72;;;12.49;64.84
8318;BME280;4196;48.926;8.964;2023-02-21T11:42:37;99385.47;;;12.77;62.14
8318;BME280;4196;48.926;8.964;2023-02-21T11:45:28;99319.88;;;12.45;62.82
8318;BME280;4196;48.926;8.964;2023-02-21T11:48:17;99344.00;;;12.59;63.16
8318;BME280;4196;48.926;8.964;2023-02-21T11:51:16;99370.75;;;12.78;62.58
8318;BME280;4196;48.926;8.964;2023-02-21T11:54:04;99369.84;;;12.84;61.39
8318;BME280;4196;48.926;8.964;2023-02-21T12:12:57;99324.34;;;13.40;61.80
8318;BME280;4196;48.926;8.964;2023-02-21T12:15:25;99313.03;;;13.45;62.16
8318;BME280;4196;48.926;8.964;2023-02-21T12:21:36;99291.25;;;13.51;64.74
8318;BME280;4196;48.926;8.964;2023-02-21T12:24:55;99303.19;;;13.73;64.86
8318;BME280;4196;48.926;8.964;2023-02-21T12:34:02;99285.56;;;13.94;61.71
8318;BME280;4196;48.926;8.964;2023-02-21T12:43:25;99247.19;;;14.08;59.95
8318;BME280;4196;48.926;8.964;2023-02-21T12:52:54;99256.44;;;14.88;59.33
8318;BME280;4196;48.926;8.964;2023-02-21T12:55:53;99232.03;;;14.92;57.40
8318;BME280;4196;48.926;8.964;2023-02-21T12:58:44;99242.25;;;15.04;57.84
8318;BME280;4196;48.926;8.964;2023-02-21T13:01:47;99239.91;;;14.87;57.90
8318;BME280;4196;48.926;8.964;2023-02-21T13:04:43;99206.41;;;14.64;58.03
8318;BME280;4196;48.926;8.964;2023-02-21T13:07:36;99232.72;;;15.02;57.87
8318;BME280;4196;48.926;8.964;2023-02-21T13:10:28;99219.53;;;15.09;57.66
8318;BME280;4196;48.926;8.964;2023-02-21T13:13:21;99203.16;;;15.03;55.68
8318;BME280;4196;48.926;8.964;2023-02-21T13:16:11;99214.78;;;15.31;54.58
8318;BME280;4196;48.926;8.964;2023-02-21T13:19:03;99158.69;;;15.09;54.22
8318;BME280;4196;48.926;8.964;2023-02-21T13:24:47;99197.78;;;15.55;54.71
8318;BME280;4196;48.926;8.964;2023-02-21T13:30:37;99192.88;;;15.40;54.29
8318;BME280;4196;48.926;8.964;2023-02-21T13:33:40;99187.28;;;15.57;54.04
8318;BME280;4196;48.926;8.964;2023-02-21T13:36:39;99189.94;;;15.55;53.60
8318;BME280;4196;48.926;8.964;2023-02-21T13:39:29;99158.63;;;15.55;54.15
8318;BME280;4196;48.926;8.964;2023-02-21T13:42:22;99149.66;;;15.70;53.43
8318;BME280;4196;48.926;8.964;2023-02-21T13:45:21;99168.06;;;16.01;52.52
8318;BME280;4196;48.926;8.964;2023-02-21T13:48:17;99156.81;;;15.99;51.08
8318;BME280;4196;48.926;8.964;2023-02-21T13:51:04;99146.63;;;15.87;52.02
8318;BME280;4196;48.926;8.964;2023-02-21T13:54:10;99144.81;;;15.90;51.82
8318;BME280;4196;48.926;8.964;2023-02-21T13:56:57;99146.38;;;15.99;52.30
8318;BME280;4196;48.926;8.964;2023-02-21T13:59:43;99139.28;;;16.04;52.29
8318;BME280;4196;48.926;8.964;2023-02-21T14:02:32;99107.28;;;15.56;52.70
8318;BME280;4196;48.926;8.964;2023-02-21T14:05:20;99118.47;;;15.62;52.76
8318;BME280;4196;48.926;8.964;2023-02-21T14:08:07;99119.53;;;15.52;53.47
8318;BME280;4196;48.926;8.964;2023-02-21T14:11:43;99128.28;;;15.51;53.48
8318;BME280;4196;48.926;8.964;2023-02-21T14:14:29;99123.13;;;15.48;54.06
8318;BME280;4196;48.926;8.964;2023-02-21T14:17:26;99099.75;;;15.42;53.90
8318;BME280;4196;48.926;8.964;2023-02-21T14:20:18;99114.84;;;15.28;55.14
8318;BME280;4196;48.926;8.964;2023-02-21T14:23:14;99083.22;;;15.03;53.92
8318;BME280;4196;48.926;8.964;2023-02-21T14:26:04;99116.09;;;15.10;53.89
8318;BME280;4196;48.926;8.964;2023-02-21T14:31:52;99079.72;;;14.57;55.13
8318;BME280;4196;48.926;8.964;2023-02-21T14:37:40;99082.13;;;14.69;55.01
8318;BME280;4196;48.926;8.964;2023-02-21T14:40:40;99101.72;;;14.89;55.17
8318;BME280;4196;48.926;8.964;2023-02-21T15:02:28;99076.13;;;14.64;56.37
8318;BME280;4196;48.926;8.964;2023-02-21T15:05:24;99067.53;;;14.59;56.16
8318;BME280;4196;48.926;8.964;2023-02-21T15:08:19;99058.19;;;14.47;56.64
8318;BME280;4196;48.926;8.964;2023-02-21T15:11:35;99050.59;;;14.34;56.40
8318;BME280;4196;48.926;8.964;2023-02-21T15:14:25;99067.69;;;14.50;55.87
8318;BME280;4196;48.926;8.964;2023-02-21T15:17:17;99077.41;;;14.39;55.79
8318;BME280;4196;48.926;8.964;2023-02-21T15:20:14;99053.34;;;14.24;56.29
8318;BME280;4196;48.926;8.964;2023-02-21T15:23:12;99071.50;;;14.31;56.98
8318;BME280;4196;48.926;8.964;2023-02-21T15:26:13;99066.13;;;14.40;56.20
8318;BME280;4196;48.926;8.964;2023-02-21T15:29:16;99055.75;;;14.37;56.36
8318;BME280;4196;48.926;8.964;2023-02-21T15:32:04;99058.56;;;14.24;56.41
8318;BME280;4196;48.926;8.964;2023-02-21T15:34:52;99027.78;;;13.98;56.79
8318;BME280;4196;48.926;8.964;2023-02-21T15:37:40;99045.28;;;14.40;56.63
8318;BME280;4196;48.926;8.964;2023-02-21T15:40:29;99049.75;;;14.32;56.52
8318;BME280;4196;48.926;8.964;2023-02-21T15:43:28;99049.13;;;14.19;56.46
8318;BME280;4196;48.926;8.964;2023-02-21T15:46:21;99038.13;;;14.03;57.32
8318;BME280;4196;48.926;8.964;2023-02-21T15:49:21;99032.13;;;13.98;57.78
8318;BME280;4196;48.926;8.964;2023-02-21T15:52:46;99045.34;;;13.86;58.99
8318;BME280;4196;48.926;8.964;2023-02-21T15:55:34;99044.31;;;13.96;58.66
8318;BME280;4196;48.926;8.964;2023-02-21T15:58:26;99040.91;;;13.91;58.74
8318;BME280;4196;48.926;8.964;2023-02-21T16:01:12;99030.63;;;13.85;59.34
8318;BME280;4196;48.926;8.964;2023-02-21T16:04:19;99040.34;;;13.73;60.56
8318;BME280;4196;48.926;8.964;2023-02-21T16:07:15;99033.69;;;13.56;62.12
8318;BME280;4196;48.926;8.964;2023-02-21T16:10:05;99001.19;;;13.24;62.43
8318;BME280;4196;48.926;8.964;2023-02-21T16:12:55;99037.63;;;13.19;63.45
8318;BME280;4196;48.926;8.964;2023-02-21T16:15:43;99021.56;;;12.90;65.33
8318;BME280;4196;48.926;8.964;2023-02-21T16:18:30;99021.75;;;12.74;66.62
8318;BME280;4196;48.926;8.964;2023-02-21T16:21:23;98999.63;;;12.40;68.01
8318;BME280;4196;48.926;8.964;2023-02-21T16:24:30;99024.78;;;12.35;69.70
8318;BME280;4196;48.926;8.964;2023-02-21T16:27:17;99005.16;;;12.06;70.70
8318;BME280;4196;48.926;8.964;2023-02-21T16:30:04;99024.25;;;11.99;72.57
8318;BME280;4196;48.926;8.964;2023-02-21T16:32:54;99019.19;;;11.80;74.60
8318;BME280;4196;48.926;8.964;2023-02-21T16:35:43;99008.22;;;11.49;75.78
8318;BME280;4196;48.926;8.964;2023-02-21T16:38:29;99036.75;;;11.45;77.18
8318;BME280;4196;48.926;8.964;2023-02-21T16:41:16;99036.81;;;11.32;78.11
8318;BME280;4196;48.926;8.964;2023-02-21T16:44:03;99041.19;;;11.24;79.23
8318;BME280;4196;48.926;8.964;2023-02-21T16:46:50;99036.94;;;11.11;77.70
8318;BME280;4196;48.926;8.964;2023-02-21T16:49:37;99006.81;;;10.92;79.51
8318;BME280;4196;48.926;8.964;2023-02-21T16:52:23;99018.09;;;10.81;80.57
8318;BME280;4196;48.926;8.964;2023-02-21T16:55:15;99037.16;;;10.56;85.06
8318;BME280;4196;48.926;8.964;2023-02-21T16:58:05;99034.66;;;10.28;87.33
8318;BME280;4196;48.926;8.964;2023-02-21T17:00:54;98997.59;;;9.74;89.73
8318;BME280;4196;48.926;8.964;2023-02-21T17:03:40;99035.53;;;9.69;93.20
8318;BME280;4196;48.926;8.964;2023-02-21T17:06:27;98994.13;;;9.26;94.92
8318;BME280;4196;48.926;8.964;2023-02-21T17:09:20;98996.63;;;8.97;97.65
8318;BME280;4196;48.926;8.964;2023-02-21T17:12:07;99050.97;;;9.17;98.75
8318;BME280;4196;48.926;8.964;2023-02-21T17:14:54;99020.75;;;8.91;99.50
8318;BME280;4196;48.926;8.964;2023-02-21T17:17:40;99048.28;;;8.95;99.86
8318;BME280;4196;48.926;8.964;2023-02-21T17:20:36;99017.16;;;8.65;100.00
8318;BME280;4196;48.926;8.964;2023-02-21T17:23:22;99037.00;;;8.72;99.93